Pleasant Plain, Ohio
Current Conditions -  °F | °C
As of 11:54 PM on Monday 26 Jan 2015 (Local Time) from KILN Reporting Station
Haze Haze  
Wind Chill: 11°   Ceiling: 8500
Heat Index: 11°   Visibility: 6mi
Dew Point:   Wind: 0mph
Humidity: 84%   Direction: NA
Pressure: 29.93"   Gusts: NA
Location:  39.28°N, 84.11°W
Report Text: KILN 270454Z AUTO 00000KT 6SM BR SCT070 OVC085 M12/M14 A2993 RMK AO2 SLP175 T11171139 410281122
Loading
Personal Weather Stations






























Interactive Weather Map New forecast layout! Learn more

10-Day Weather Forecast

Advertisements
Track Severe Weather on mobile